首页
METAR-TAF:

METAR-TAF

机场 :

Skiathos, 希腊

纬度: 39-11N, 经度: 023-30E, 海拔: 15米

当前天气观测

该预报发布于1小时和3分钟前的15:50 UTC
风速4节,风向东北
温度 25°C
湿度 69%
气压 1017 hPa
能见度10公里或以上
1500米以下无云,无积雨云

METAR: LGSK 231550Z 04004KT CAVOK 25/19 Q1017

时间: 19:53 (16:53 UTC)

预报

该预报发布于2小时和53分钟前的14:00 UTC
预报有效从23日的 15点(UTC)到 23日的 24点(UTC)
风速5节,风向多变
能见度10公里或以上
少量云层高于2000英尺

TAF: LGSK 231400Z 2315/2324 VRB05KT 9999 FEW020

超过4000个机场的气象观测和天气预报(METAR&TAF报告)。

可查询的气象台以黄色和红色小点在地图上表示。

将鼠标移到小点上方,可查看气象台名称。

然后点击查看天气观测和预报。

如需切换地图:点击带黑十字的绿色按钮放大地图;点击带横线的绿色按钮缩小地图;或者点击绿色箭头查看邻近地区的地图。


METAR-TAF: